This is the latest recevied weather packets stored in our database for station/object N5PUP-13. If no packets are shown the sender has not sent any weather packets the latest 10 day(s).
| Time | Temp. | Humidity | Pressure | Rain* | Wind** | Luminosity | Snow |
|---|---|---|---|---|---|---|---|
| 1787857200 | 32.22° C | 44% | 1019.8 hPa | 0 mm | - | - | - |
| 1787856900 | 32.78° C | 43% | 1019.9 hPa | 0 mm | - | - | - |
| 1787856600 | 31.67° C | 45% | 1019.9 hPa | 0 mm | - | - | - |
| 1787856300 | 30° C | 49% | 1020 hPa | 0 mm | - | - | - |
| 1787856000 | 30° C | 51% | 1020 hPa | 0 mm | - | - | - |
| 1787855700 | 30.56° C | 49% | 1020.2 hPa | 0 mm | - | - | - |
| 1787855400 | 31.67° C | 46% | 1020.2 hPa | 0 mm | - | - | - |
| 1787855100 | 32.22° C | 44% | 1020.4 hPa | 0 mm | - | - | - |
| 1787854800 | 30.56° C | 49% | 1020.4 hPa | 0 mm | - | - | - |
| 1787854500 | 29.44° C | 51% | 1020.5 hPa | 0 mm | - | - | - |
| 1787854200 | 30° C | 50% | 1020.7 hPa | 0 mm | - | - | - |
| 1787853900 | 30° C | 50% | 1020.7 hPa | 0 mm | - | - | - |
| 1787853600 | 28.33° C | 55% | 1020.9 hPa | 0 mm | - | - | - |
| 1787853300 | 28.33° C | 56% | 1020.9 hPa | 0 mm | - | - | - |
| 1787853000 | 28.33° C | 56% | 1020.9 hPa | 0 mm | - | - | - |
| 1787852700 | 27.78° C | 57% | 1021.1 hPa | 0 mm | - | - | - |
| 1787852400 | 28.33° C | 56% | 1021.2 hPa | 0 mm | - | - | - |
| 1787852100 | 27.78° C | 58% | 1021.3 hPa | 0 mm | - | - | - |
| 1787851800 | 27.22° C | 59% | 1021.4 hPa | 0 mm | - | - | - |
| 1787851500 | 27.22° C | 60% | 1021.5 hPa | 0 mm | - | - | - |
| 1787851200 | 27.22° C | 60% | 1021.7 hPa | 0 mm | - | - | - |
| 1787850900 | 27.78° C | 59% | 1021.7 hPa | 0 mm | - | - | - |
| 1787850600 | 27.22° C | 60% | 1021.7 hPa | 0 mm | - | - | - |
| 1787850300 | 27.22° C | 61% | 1021.6 hPa | 0 mm | - | - | - |
| 1787850000 | 27.78° C | 61% | 1021.6 hPa | 0 mm | - | - | - |
* Rain latest hour (hover to see other rain measurements)
** Current wind speed in m/s (hover to see current wind gust speed)